sensor_id;sensor_type;location;lat;lon;timestamp;temperature;humidity
45843;DHT22;31563;51.744;8.252;2022-08-25T00:00:15;33.10;33.60
45843;DHT22;31563;51.744;8.252;2022-08-25T00:02:43;33.00;33.50
45843;DHT22;31563;51.744;8.252;2022-08-25T00:05:26;33.00;33.50
45843;DHT22;31563;51.744;8.252;2022-08-25T00:07:59;33.00;33.60
45843;DHT22;31563;51.744;8.252;2022-08-25T00:10:28;33.00;33.70
45843;DHT22;31563;51.744;8.252;2022-08-25T00:12:58;33.00;33.70
45843;DHT22;31563;51.744;8.252;2022-08-25T00:15:27;32.90;33.80
45843;DHT22;31563;51.744;8.252;2022-08-25T00:17:57;32.90;33.80
45843;DHT22;31563;51.744;8.252;2022-08-25T00:20:27;32.90;33.80
45843;DHT22;31563;51.744;8.252;2022-08-25T00:22:56;32.80;33.80
45843;DHT22;31563;51.744;8.252;2022-08-25T00:25:24;32.90;33.90
45843;DHT22;31563;51.744;8.252;2022-08-25T00:27:52;32.80;33.90
45843;DHT22;31563;51.744;8.252;2022-08-25T00:30:22;32.80;33.90
45843;DHT22;31563;51.744;8.252;2022-08-25T00:32:50;32.70;34.00
45843;DHT22;31563;51.744;8.252;2022-08-25T00:35:24;32.70;34.00
45843;DHT22;31563;51.744;8.252;2022-08-25T00:37:53;32.70;34.10
45843;DHT22;31563;51.744;8.252;2022-08-25T00:40:22;32.70;34.10
45843;DHT22;31563;51.744;8.252;2022-08-25T00:42:50;32.60;34.10
45843;DHT22;31563;51.744;8.252;2022-08-25T00:45:19;32.60;34.10
45843;DHT22;31563;51.744;8.252;2022-08-25T00:47:49;32.60;34.10
45843;DHT22;31563;51.744;8.252;2022-08-25T00:50:17;32.60;34.20
45843;DHT22;31563;51.744;8.252;2022-08-25T00:52:49;32.60;34.30
45843;DHT22;31563;51.744;8.252;2022-08-25T00:55:21;32.50;34.20
45843;DHT22;31563;51.744;8.252;2022-08-25T00:57:55;32.40;34.00
45843;DHT22;31563;51.744;8.252;2022-08-25T01:00:29;32.20;34.00
45843;DHT22;31563;51.744;8.252;2022-08-25T01:02:59;32.00;35.20
45843;DHT22;31563;51.744;8.252;2022-08-25T01:05:27;31.90;34.60
45843;DHT22;31563;51.744;8.252;2022-08-25T01:07:57;31.80;35.10
45843;DHT22;31563;51.744;8.252;2022-08-25T01:10:33;31.90;35.30
45843;DHT22;31563;51.744;8.252;2022-08-25T01:13:06;31.90;35.40
45843;DHT22;31563;51.744;8.252;2022-08-25T01:15:43;31.90;35.40
45843;DHT22;31563;51.744;8.252;2022-08-25T01:18:13;31.90;35.40
45843;DHT22;31563;51.744;8.252;2022-08-25T01:20:42;31.90;35.40
45843;DHT22;31563;51.744;8.252;2022-08-25T01:23:11;31.90;35.40
45843;DHT22;31563;51.744;8.252;2022-08-25T01:25:42;32.00;35.40
45843;DHT22;31563;51.744;8.252;2022-08-25T01:28:13;31.90;35.30
45843;DHT22;31563;51.744;8.252;2022-08-25T01:30:41;31.90;35.40
45843;DHT22;31563;51.744;8.252;2022-08-25T01:33:10;31.90;35.40
45843;DHT22;31563;51.744;8.252;2022-08-25T01:35:39;31.90;35.40
45843;DHT22;31563;51.744;8.252;2022-08-25T01:38:07;31.90;35.50
45843;DHT22;31563;51.744;8.252;2022-08-25T01:40:38;31.80;35.40
45843;DHT22;31563;51.744;8.252;2022-08-25T01:43:11;31.80;35.40
45843;DHT22;31563;51.744;8.252;2022-08-25T01:45:46;31.80;35.60
45843;DHT22;31563;51.744;8.252;2022-08-25T01:48:16;31.80;35.60
45843;DHT22;31563;51.744;8.252;2022-08-25T01:50:45;31.70;35.60
45843;DHT22;31563;51.744;8.252;2022-08-25T01:53:18;31.70;35.60
45843;DHT22;31563;51.744;8.252;2022-08-25T01:55:50;31.70;35.60
45843;DHT22;31563;51.744;8.252;2022-08-25T01:58:30;31.70;35.70
45843;DHT22;31563;51.744;8.252;2022-08-25T02:01:01;31.70;35.70
45843;DHT22;31563;51.744;8.252;2022-08-25T02:03:29;31.60;35.60
45843;DHT22;31563;51.744;8.252;2022-08-25T02:05:59;31.60;35.70
45843;DHT22;31563;51.744;8.252;2022-08-25T02:08:30;31.60;35.70
45843;DHT22;31563;51.744;8.252;2022-08-25T02:10:59;31.60;35.70
45843;DHT22;31563;51.744;8.252;2022-08-25T02:13:27;31.60;35.80
45843;DHT22;31563;51.744;8.252;2022-08-25T02:15:57;31.50;35.70
45843;DHT22;31563;51.744;8.252;2022-08-25T02:18:26;31.50;35.70
45843;DHT22;31563;51.744;8.252;2022-08-25T02:20:54;31.50;35.80
45843;DHT22;31563;51.744;8.252;2022-08-25T02:23:22;31.50;35.80
45843;DHT22;31563;51.744;8.252;2022-08-25T02:25:51;31.50;35.90
45843;DHT22;31563;51.744;8.252;2022-08-25T02:28:20;31.40;35.80
45843;DHT22;31563;51.744;8.252;2022-08-25T02:30:48;31.40;35.90
45843;DHT22;31563;51.744;8.252;2022-08-25T02:33:24;31.40;35.90
45843;DHT22;31563;51.744;8.252;2022-08-25T02:35:56;31.40;36.00
45843;DHT22;31563;51.744;8.252;2022-08-25T02:38:24;31.40;36.00
45843;DHT22;31563;51.744;8.252;2022-08-25T02:40:53;31.40;36.10
45843;DHT22;31563;51.744;8.252;2022-08-25T02:43:24;31.30;36.10
45843;DHT22;31563;51.744;8.252;2022-08-25T02:45:53;31.30;36.10
45843;DHT22;31563;51.744;8.252;2022-08-25T02:48:22;31.30;36.20
45843;DHT22;31563;51.744;8.252;2022-08-25T02:50:51;31.20;36.20
45843;DHT22;31563;51.744;8.252;2022-08-25T02:53:20;31.20;36.20
45843;DHT22;31563;51.744;8.252;2022-08-25T02:55:48;31.20;36.30
45843;DHT22;31563;51.744;8.252;2022-08-25T02:58:16;31.20;36.40
45843;DHT22;31563;51.744;8.252;2022-08-25T03:00:46;31.20;36.40
45843;DHT22;31563;51.744;8.252;2022-08-25T03:03:15;31.10;36.40
45843;DHT22;31563;51.744;8.252;2022-08-25T03:05:44;31.10;36.40
45843;DHT22;31563;51.744;8.252;2022-08-25T03:08:12;31.10;36.40
45843;DHT22;31563;51.744;8.252;2022-08-25T03:10:40;31.10;36.50
45843;DHT22;31563;51.744;8.252;2022-08-25T03:13:09;31.10;36.50
45843;DHT22;31563;51.744;8.252;2022-08-25T03:15:37;31.00;36.50
45843;DHT22;31563;51.744;8.252;2022-08-25T03:18:09;31.00;36.60
45843;DHT22;31563;51.744;8.252;2022-08-25T03:20:40;31.00;36.60
45843;DHT22;31563;51.744;8.252;2022-08-25T03:23:09;31.00;36.70
45843;DHT22;31563;51.744;8.252;2022-08-25T03:25:38;31.00;36.70
45843;DHT22;31563;51.744;8.252;2022-08-25T03:28:27;30.90;36.70
45843;DHT22;31563;51.744;8.252;2022-08-25T03:30:57;30.90;36.80
45843;DHT22;31563;51.744;8.252;2022-08-25T03:33:28;30.90;36.80
45843;DHT22;31563;51.744;8.252;2022-08-25T03:35:56;30.90;36.90
45843;DHT22;31563;51.744;8.252;2022-08-25T03:38:25;30.80;36.90
45843;DHT22;31563;51.744;8.252;2022-08-25T03:40:53;30.80;36.90
45843;DHT22;31563;51.744;8.252;2022-08-25T03:43:21;30.80;37.00
45843;DHT22;31563;51.744;8.252;2022-08-25T03:45:50;30.80;37.00
45843;DHT22;31563;51.744;8.252;2022-08-25T03:48:18;30.80;37.10
45843;DHT22;31563;51.744;8.252;2022-08-25T03:50:49;30.70;37.10
45843;DHT22;31563;51.744;8.252;2022-08-25T03:53:20;30.70;37.10
45843;DHT22;31563;51.744;8.252;2022-08-25T03:55:49;30.70;37.20
45843;DHT22;31563;51.744;8.252;2022-08-25T03:58:18;30.70;37.20
45843;DHT22;31563;51.744;8.252;2022-08-25T04:00:46;30.70;37.40
45843;DHT22;31563;51.744;8.252;2022-08-25T04:03:14;30.60;37.30
45843;DHT22;31563;51.744;8.252;2022-08-25T04:05:42;30.60;37.30
45843;DHT22;31563;51.744;8.252;2022-08-25T04:08:12;30.70;37.40
45843;DHT22;31563;51.744;8.252;2022-08-25T04:10:40;30.60;37.50
45843;DHT22;31563;51.744;8.252;2022-08-25T04:13:08;30.60;37.40
45843;DHT22;31563;51.744;8.252;2022-08-25T04:15:40;30.50;37.50
45843;DHT22;31563;51.744;8.252;2022-08-25T04:18:09;30.40;37.40
45843;DHT22;31563;51.744;8.252;2022-08-25T04:20:39;30.30;37.70
45843;DHT22;31563;51.744;8.252;2022-08-25T04:23:13;30.20;37.90
45843;DHT22;31563;51.744;8.252;2022-08-25T04:25:42;30.10;38.00
45843;DHT22;31563;51.744;8.252;2022-08-25T04:28:11;30.00;38.10
45843;DHT22;31563;51.744;8.252;2022-08-25T04:30:41;29.90;38.20
45843;DHT22;31563;51.744;8.252;2022-08-25T04:33:09;29.90;38.50
45843;DHT22;31563;51.744;8.252;2022-08-25T04:35:38;29.80;38.60
45843;DHT22;31563;51.744;8.252;2022-08-25T04:38:07;29.80;38.90
45843;DHT22;31563;51.744;8.252;2022-08-25T04:40:36;29.70;38.90
45843;DHT22;31563;51.744;8.252;2022-08-25T04:43:04;29.70;39.10
45843;DHT22;31563;51.744;8.252;2022-08-25T04:45:36;29.60;39.20
45843;DHT22;31563;51.744;8.252;2022-08-25T04:48:05;29.60;39.30
45843;DHT22;31563;51.744;8.252;2022-08-25T04:50:37;29.50;39.40
45843;DHT22;31563;51.744;8.252;2022-08-25T04:53:05;29.50;39.50
45843;DHT22;31563;51.744;8.252;2022-08-25T04:55:39;29.40;39.60
45843;DHT22;31563;51.744;8.252;2022-08-25T04:58:08;29.40;39.80
45843;DHT22;31563;51.744;8.252;2022-08-25T05:00:42;29.40;40.00
45843;DHT22;31563;51.744;8.252;2022-08-25T05:03:12;29.30;40.00
45843;DHT22;31563;51.744;8.252;2022-08-25T05:05:41;29.20;40.20
45843;DHT22;31563;51.744;8.252;2022-08-25T05:08:09;29.20;40.40
45843;DHT22;31563;51.744;8.252;2022-08-25T05:10:40;29.30;40.90
45843;DHT22;31563;51.744;8.252;2022-08-25T05:13:09;29.40;41.00
45843;DHT22;31563;51.744;8.252;2022-08-25T05:15:37;29.40;41.00
45843;DHT22;31563;51.744;8.252;2022-08-25T05:18:25;29.40;40.80
45843;DHT22;31563;51.744;8.252;2022-08-25T05:20:55;29.40;40.70
45843;DHT22;31563;51.744;8.252;2022-08-25T05:23:24;29.30;40.80
45843;DHT22;31563;51.744;8.252;2022-08-25T05:25:53;29.30;40.90
45843;DHT22;31563;51.744;8.252;2022-08-25T05:28:24;29.20;41.00
45843;DHT22;31563;51.744;8.252;2022-08-25T05:30:56;29.20;41.20
45843;DHT22;31563;51.744;8.252;2022-08-25T05:33:25;29.20;41.20
45843;DHT22;31563;51.744;8.252;2022-08-25T05:35:58;29.10;41.30
45843;DHT22;31563;51.744;8.252;2022-08-25T05:38:28;29.10;41.50
45843;DHT22;31563;51.744;8.252;2022-08-25T05:40:59;29.10;41.50
45843;DHT22;31563;51.744;8.252;2022-08-25T05:43:27;29.10;41.70
45843;DHT22;31563;51.744;8.252;2022-08-25T05:45:56;29.10;41.90
45843;DHT22;31563;51.744;8.252;2022-08-25T05:48:26;29.10;42.00
45843;DHT22;31563;51.744;8.252;2022-08-25T05:50:55;29.10;42.70
45843;DHT22;31563;51.744;8.252;2022-08-25T05:53:24;29.10;42.00
45843;DHT22;31563;51.744;8.252;2022-08-25T05:55:54;29.10;42.20
45843;DHT22;31563;51.744;8.252;2022-08-25T05:58:25;29.10;42.20
45843;DHT22;31563;51.744;8.252;2022-08-25T06:00:53;29.10;42.20
45843;DHT22;31563;51.744;8.252;2022-08-25T06:03:22;29.10;43.00
45843;DHT22;31563;51.744;8.252;2022-08-25T06:05:49;29.10;42.50
45843;DHT22;31563;51.744;8.252;2022-08-25T06:08:18;29.10;42.60
45843;DHT22;31563;51.744;8.252;2022-08-25T06:10:51;29.10;42.60
45843;DHT22;31563;51.744;8.252;2022-08-25T06:13:19;29.20;42.90
45843;DHT22;31563;51.744;8.252;2022-08-25T06:15:58;29.20;42.90
45843;DHT22;31563;51.744;8.252;2022-08-25T06:18:27;29.20;43.00
45843;DHT22;31563;51.744;8.252;2022-08-25T06:20:55;29.30;43.10
45843;DHT22;31563;51.744;8.252;2022-08-25T06:23:23;29.30;43.00
45843;DHT22;31563;51.744;8.252;2022-08-25T06:25:52;29.40;43.30
45843;DHT22;31563;51.744;8.252;2022-08-25T06:28:22;29.40;43.20
45843;DHT22;31563;51.744;8.252;2022-08-25T06:30:56;29.50;43.20
45843;DHT22;31563;51.744;8.252;2022-08-25T06:33:25;29.50;43.30
45843;DHT22;31563;51.744;8.252;2022-08-25T06:35:55;29.50;43.40
45843;DHT22;31563;51.744;8.252;2022-08-25T06:38:23;29.50;43.40
45843;DHT22;31563;51.744;8.252;2022-08-25T06:40:52;29.50;43.50
45843;DHT22;31563;51.744;8.252;2022-08-25T06:43:20;29.60;43.50
45843;DHT22;31563;51.744;8.252;2022-08-25T06:45:49;29.60;43.60
45843;DHT22;31563;51.744;8.252;2022-08-25T06:48:17;29.60;43.80
45843;DHT22;31563;51.744;8.252;2022-08-25T06:50:46;29.60;43.90
45843;DHT22;31563;51.744;8.252;2022-08-25T06:53:14;29.70;43.90
45843;DHT22;31563;51.744;8.252;2022-08-25T06:55:43;29.70;44.00
45843;DHT22;31563;51.744;8.252;2022-08-25T06:58:11;29.70;44.00
45843;DHT22;31563;51.744;8.252;2022-08-25T07:00:39;29.70;44.00
45843;DHT22;31563;51.744;8.252;2022-08-25T07:03:07;29.80;44.00
45843;DHT22;31563;51.744;8.252;2022-08-25T07:05:36;29.90;44.10
45843;DHT22;31563;51.744;8.252;2022-08-25T07:08:11;29.90;44.00
45843;DHT22;31563;51.744;8.252;2022-08-25T07:10:39;29.90;43.90
45843;DHT22;31563;51.744;8.252;2022-08-25T07:13:13;29.90;44.00
45843;DHT22;31563;51.744;8.252;2022-08-25T07:15:42;29.90;44.20
45843;DHT22;31563;51.744;8.252;2022-08-25T07:18:11;30.00;45.00
45843;DHT22;31563;51.744;8.252;2022-08-25T07:20:39;30.10;44.40
45843;DHT22;31563;51.744;8.252;2022-08-25T07:23:07;30.20;44.30
45843;DHT22;31563;51.744;8.252;2022-08-25T07:25:37;30.30;44.30
45843;DHT22;31563;51.744;8.252;2022-08-25T07:28:05;30.40;44.20
45843;DHT22;31563;51.744;8.252;2022-08-25T07:30:35;30.40;44.10
45843;DHT22;31563;51.744;8.252;2022-08-25T07:33:03;30.50;44.00
45843;DHT22;31563;51.744;8.252;2022-08-25T07:35:33;30.60;44.00
45843;DHT22;31563;51.744;8.252;2022-08-25T07:38:04;30.60;44.00
45843;DHT22;31563;51.744;8.252;2022-08-25T07:40:39;30.70;44.10
45843;DHT22;31563;51.744;8.252;2022-08-25T07:43:08;30.80;44.00
45843;DHT22;31563;51.744;8.252;2022-08-25T07:45:38;30.80;44.00
45843;DHT22;31563;51.744;8.252;2022-08-25T07:48:16;30.90;43.90
45843;DHT22;31563;51.744;8.252;2022-08-25T07:50:46;30.90;43.80
45843;DHT22;31563;51.744;8.252;2022-08-25T07:53:16;30.90;43.80
45843;DHT22;31563;51.744;8.252;2022-08-25T07:55:45;31.00;43.90
45843;DHT22;31563;51.744;8.252;2022-08-25T07:58:13;31.00;43.90
45843;DHT22;31563;51.744;8.252;2022-08-25T08:00:42;31.10;44.00
45843;DHT22;31563;51.744;8.252;2022-08-25T08:03:10;31.10;43.80
45843;DHT22;31563;51.744;8.252;2022-08-25T08:05:58;31.30;43.80
45843;DHT22;31563;51.744;8.252;2022-08-25T08:08:27;31.30;43.60
45843;DHT22;31563;51.744;8.252;2022-08-25T08:10:59;31.40;43.60
45843;DHT22;31563;51.744;8.252;2022-08-25T08:13:31;31.50;43.70
45843;DHT22;31563;51.744;8.252;2022-08-25T08:16:08;31.50;43.40
45843;DHT22;31563;51.744;8.252;2022-08-25T08:18:37;31.60;43.40
45843;DHT22;31563;51.744;8.252;2022-08-25T08:21:10;31.70;43.30
45843;DHT22;31563;51.744;8.252;2022-08-25T08:23:45;31.80;43.20
45843;DHT22;31563;51.744;8.252;2022-08-25T08:26:17;32.00;43.10
45843;DHT22;31563;51.744;8.252;2022-08-25T08:28:46;32.20;43.20
45843;DHT22;31563;51.744;8.252;2022-08-25T08:31:18;32.30;42.70
45843;DHT22;31563;51.744;8.252;2022-08-25T08:33:47;32.40;42.60
45843;DHT22;31563;51.744;8.252;2022-08-25T08:36:16;32.50;42.40
45843;DHT22;31563;51.744;8.252;2022-08-25T08:38:46;32.70;42.40
45843;DHT22;31563;51.744;8.252;2022-08-25T08:41:33;32.80;42.20
45843;DHT22;31563;51.744;8.252;2022-08-25T08:44:44;32.90;42.10
45843;DHT22;31563;51.744;8.252;2022-08-25T08:47:24;33.10;41.90
45843;DHT22;31563;51.744;8.252;2022-08-25T08:50:03;33.20;41.60
45843;DHT22;31563;51.744;8.252;2022-08-25T08:52:38;33.30;41.60
45843;DHT22;31563;51.744;8.252;2022-08-25T08:55:12;33.40;41.40
45843;DHT22;31563;51.744;8.252;2022-08-25T08:57:47;33.60;41.30
45843;DHT22;31563;51.744;8.252;2022-08-25T09:00:16;33.70;41.10
45843;DHT22;31563;51.744;8.252;2022-08-25T09:02:51;33.80;41.10
45843;DHT22;31563;51.744;8.252;2022-08-25T09:05:25;33.90;40.80
45843;DHT22;31563;51.744;8.252;2022-08-25T09:07:56;34.00;40.50
45843;DHT22;31563;51.744;8.252;2022-08-25T09:10:28;34.10;40.20
45843;DHT22;31563;51.744;8.252;2022-08-25T09:13:06;34.00;39.90
45843;DHT22;31563;51.744;8.252;2022-08-25T09:15:40;34.00;40.00
45843;DHT22;31563;51.744;8.252;2022-08-25T09:21:26;34.00;40.10
45843;DHT22;31563;51.744;8.252;2022-08-25T09:24:12;34.00;40.20
45843;DHT22;31563;51.744;8.252;2022-08-25T09:26:55;34.20;40.50
45843;DHT22;31563;51.744;8.252;2022-08-25T09:29:35;34.40;40.40
45843;DHT22;31563;51.744;8.252;2022-08-25T09:32:08;34.60;40.10
45843;DHT22;31563;51.744;8.252;2022-08-25T09:34:40;34.70;39.80
45843;DHT22;31563;51.744;8.252;2022-08-25T09:37:09;34.80;39.90
45843;DHT22;31563;51.744;8.252;2022-08-25T09:39:37;34.80;39.60
45843;DHT22;31563;51.744;8.252;2022-08-25T09:42:05;34.90;39.80
45843;DHT22;31563;51.744;8.252;2022-08-25T09:44:41;35.00;39.70
45843;DHT22;31563;51.744;8.252;2022-08-25T09:47:18;35.10;39.20
45843;DHT22;31563;51.744;8.252;2022-08-25T09:49:49;35.20;38.90
45843;DHT22;31563;51.744;8.252;2022-08-25T09:52:33;35.20;38.40
45843;DHT22;31563;51.744;8.252;2022-08-25T09:55:22;35.30;38.20
45843;DHT22;31563;51.744;8.252;2022-08-25T09:57:53;35.20;37.90
45843;DHT22;31563;51.744;8.252;2022-08-25T10:00:26;35.40;38.30
45843;DHT22;31563;51.744;8.252;2022-08-25T10:03:18;35.50;37.90
45843;DHT22;31563;51.744;8.252;2022-08-25T10:05:59;35.60;37.90
45843;DHT22;31563;51.744;8.252;2022-08-25T10:08:32;35.80;37.90
45843;DHT22;31563;51.744;8.252;2022-08-25T10:11:04;36.00;38.00
45843;DHT22;31563;51.744;8.252;2022-08-25T10:13:39;36.10;37.80
45843;DHT22;31563;51.744;8.252;2022-08-25T10:16:21;36.20;37.50
45843;DHT22;31563;51.744;8.252;2022-08-25T10:19:04;36.20;37.30
45843;DHT22;31563;51.744;8.252;2022-08-25T10:21:33;36.30;37.20
45843;DHT22;31563;51.744;8.252;2022-08-25T10:24:01;36.50;37.20
45843;DHT22;31563;51.744;8.252;2022-08-25T10:26:46;36.50;36.80
45843;DHT22;31563;51.744;8.252;2022-08-25T10:29:30;36.60;36.70
45843;DHT22;31563;51.744;8.252;2022-08-25T10:32:06;36.70;36.50
45843;DHT22;31563;51.744;8.252;2022-08-25T10:34:45;36.80;36.50
45843;DHT22;31563;51.744;8.252;2022-08-25T10:37:27;36.80;36.30
45843;DHT22;31563;51.744;8.252;2022-08-25T10:40:09;37.00;36.40
45843;DHT22;31563;51.744;8.252;2022-08-25T10:42:59;37.10;36.20
45843;DHT22;31563;51.744;8.252;2022-08-25T10:45:37;37.20;36.10
45843;DHT22;31563;51.744;8.252;2022-08-25T10:48:28;37.30;36.00
45843;DHT22;31563;51.744;8.252;2022-08-25T10:51:00;37.50;36.10
45843;DHT22;31563;51.744;8.252;2022-08-25T10:53:42;37.70;35.80
45843;DHT22;31563;51.744;8.252;2022-08-25T10:56:17;37.80;35.70
45843;DHT22;31563;51.744;8.252;2022-08-25T10:59:04;37.90;35.40
45843;DHT22;31563;51.744;8.252;2022-08-25T11:01:43;38.00;35.30
45843;DHT22;31563;51.744;8.252;2022-08-25T11:04:23;38.10;35.30
45843;DHT22;31563;51.744;8.252;2022-08-25T11:06:57;38.20;35.10
45843;DHT22;31563;51.744;8.252;2022-08-25T11:09:28;38.30;34.90
45843;DHT22;31563;51.744;8.252;2022-08-25T11:12:06;38.40;34.90
45843;DHT22;31563;51.744;8.252;2022-08-25T11:14:39;38.50;34.70
45843;DHT22;31563;51.744;8.252;2022-08-25T11:17:13;38.60;34.60
45843;DHT22;31563;51.744;8.252;2022-08-25T11:19:47;38.60;34.40
45843;DHT22;31563;51.744;8.252;2022-08-25T11:22:20;38.70;34.40
45843;DHT22;31563;51.744;8.252;2022-08-25T11:25:01;38.80;34.50
45843;DHT22;31563;51.744;8.252;2022-08-25T11:27:37;39.00;34.40
45843;DHT22;31563;51.744;8.252;2022-08-25T11:30:12;39.10;34.20
45843;DHT22;31563;51.744;8.252;2022-08-25T11:32:44;39.10;34.00
45843;DHT22;31563;51.744;8.252;2022-08-25T11:35:16;39.20;34.00
45843;DHT22;31563;51.744;8.252;2022-08-25T11:37:56;39.10;33.30
45843;DHT22;31563;51.744;8.252;2022-08-25T11:43:26;39.20;33.60
45843;DHT22;31563;51.744;8.252;2022-08-25T11:46:14;39.30;33.40
45843;DHT22;31563;51.744;8.252;2022-08-25T11:48:55;39.40;33.30
45843;DHT22;31563;51.744;8.252;2022-08-25T11:51:33;39.60;33.30
45843;DHT22;31563;51.744;8.252;2022-08-25T11:54:18;39.70;33.10
45843;DHT22;31563;51.744;8.252;2022-08-25T11:56:59;39.80;33.00
45843;DHT22;31563;51.744;8.252;2022-08-25T12:02:38;40.00;32.70
45843;DHT22;31563;51.744;8.252;2022-08-25T12:05:11;40.10;32.80
45843;DHT22;31563;51.744;8.252;2022-08-25T12:08:03;40.30;32.70
45843;DHT22;31563;51.744;8.252;2022-08-25T12:10:58;40.30;32.50
45843;DHT22;31563;51.744;8.252;2022-08-25T12:13:42;40.40;32.40
45843;DHT22;31563;51.744;8.252;2022-08-25T12:16:37;40.30;32.40
45843;DHT22;31563;51.744;8.252;2022-08-25T12:19:30;40.40;32.40
45843;DHT22;31563;51.744;8.252;2022-08-25T12:25:45;40.50;32.20
45843;DHT22;31563;51.744;8.252;2022-08-25T12:31:19;40.80;31.50
45843;DHT22;31563;51.744;8.252;2022-08-25T12:34:01;40.80;31.90
45843;DHT22;31563;51.744;8.252;2022-08-25T12:36:33;40.80;31.80
45843;DHT22;31563;51.744;8.252;2022-08-25T12:39:08;40.60;31.80
45843;DHT22;31563;51.744;8.252;2022-08-25T12:41:54;40.70;32.00
45843;DHT22;31563;51.744;8.252;2022-08-25T12:44:41;40.90;31.80
45843;DHT22;31563;51.744;8.252;2022-08-25T12:47:27;41.10;31.90
45843;DHT22;31563;51.744;8.252;2022-08-25T12:50:30;41.20;31.70
45843;DHT22;31563;51.744;8.252;2022-08-25T12:53:14;41.40;31.60
45843;DHT22;31563;51.744;8.252;2022-08-25T12:55:47;41.50;31.60
45843;DHT22;31563;51.744;8.252;2022-08-25T12:58:18;41.70;31.50
45843;DHT22;31563;51.744;8.252;2022-08-25T13:01:09;41.80;31.30
45843;DHT22;31563;51.744;8.252;2022-08-25T13:07:05;42.00;31.10
45843;DHT22;31563;51.744;8.252;2022-08-25T13:10:03;42.20;31.00
45843;DHT22;31563;51.744;8.252;2022-08-25T13:12:39;42.30;30.80
45843;DHT22;31563;51.744;8.252;2022-08-25T13:15:14;42.40;30.80
45843;DHT22;31563;51.744;8.252;2022-08-25T13:17:42;42.50;30.70
45843;DHT22;31563;51.744;8.252;2022-08-25T13:20:18;42.60;30.60
45843;DHT22;31563;51.744;8.252;2022-08-25T13:22:48;42.80;30.50
45843;DHT22;31563;51.744;8.252;2022-08-25T13:25:25;42.70;29.90
45843;DHT22;31563;51.744;8.252;2022-08-25T13:27:59;42.50;29.80
45843;DHT22;31563;51.744;8.252;2022-08-25T13:30:31;42.60;30.00
45843;DHT22;31563;51.744;8.252;2022-08-25T13:33:15;42.80;30.00
45843;DHT22;31563;51.744;8.252;2022-08-25T13:35:47;42.90;29.90
45843;DHT22;31563;51.744;8.252;2022-08-25T13:38:18;43.10;29.80
45843;DHT22;31563;51.744;8.252;2022-08-25T13:40:46;43.20;29.60
45843;DHT22;31563;51.744;8.252;2022-08-25T13:43:14;43.40;29.70
45843;DHT22;31563;51.744;8.252;2022-08-25T13:45:45;43.20;29.30
45843;DHT22;31563;51.744;8.252;2022-08-25T13:48:33;43.00;29.50
45843;DHT22;31563;51.744;8.252;2022-08-25T13:51:18;43.20;29.70
45843;DHT22;31563;51.744;8.252;2022-08-25T13:53:51;43.30;29.60
45843;DHT22;31563;51.744;8.252;2022-08-25T13:56:29;43.50;29.50
45843;DHT22;31563;51.744;8.252;2022-08-25T13:59:19;43.60;29.40
45843;DHT22;31563;51.744;8.252;2022-08-25T14:01:50;43.90;29.60
45843;DHT22;31563;51.744;8.252;2022-08-25T14:04:23;44.10;29.30
45843;DHT22;31563;51.744;8.252;2022-08-25T14:07:06;44.40;29.70
45843;DHT22;31563;51.744;8.252;2022-08-25T14:09:39;44.70;29.50
45843;DHT22;31563;51.744;8.252;2022-08-25T14:12:08;45.00;29.60
45843;DHT22;31563;51.744;8.252;2022-08-25T14:14:56;45.60;29.20
45843;DHT22;31563;51.744;8.252;2022-08-25T14:17:26;46.30;29.50
45843;DHT22;31563;51.744;8.252;2022-08-25T14:20:08;46.80;28.90
45843;DHT22;31563;51.744;8.252;2022-08-25T14:22:42;47.30;28.70
45843;DHT22;31563;51.744;8.252;2022-08-25T14:25:10;47.60;28.20
45843;DHT22;31563;51.744;8.252;2022-08-25T14:27:41;47.90;27.90
45843;DHT22;31563;51.744;8.252;2022-08-25T14:30:30;48.20;27.60
45843;DHT22;31563;51.744;8.252;2022-08-25T14:33:02;48.50;27.40
45843;DHT22;31563;51.744;8.252;2022-08-25T14:35:32;48.70;27.40
45843;DHT22;31563;51.744;8.252;2022-08-25T14:38:03;49.00;27.30
45843;DHT22;31563;51.744;8.252;2022-08-25T14:40:34;49.10;27.10
45843;DHT22;31563;51.744;8.252;2022-08-25T14:43:03;49.30;27.00
45843;DHT22;31563;51.744;8.252;2022-08-25T14:45:36;49.20;26.20
45843;DHT22;31563;51.744;8.252;2022-08-25T14:48:09;49.00;26.20
45843;DHT22;31563;51.744;8.252;2022-08-25T14:50:40;48.70;26.20
45843;DHT22;31563;51.744;8.252;2022-08-25T14:53:09;48.50;26.30
45843;DHT22;31563;51.744;8.252;2022-08-25T14:55:38;48.20;26.30
45843;DHT22;31563;51.744;8.252;2022-08-25T14:58:06;48.10;26.30
45843;DHT22;31563;51.744;8.252;2022-08-25T15:00:38;48.00;26.20
45843;DHT22;31563;51.744;8.252;2022-08-25T15:03:10;47.70;26.10
45843;DHT22;31563;51.744;8.252;2022-08-25T15:05:39;47.60;26.30
45843;DHT22;31563;51.744;8.252;2022-08-25T15:08:09;47.40;26.30
45843;DHT22;31563;51.744;8.252;2022-08-25T15:10:59;47.40;26.40
45843;DHT22;31563;51.744;8.252;2022-08-25T15:13:34;47.30;26.30
45843;DHT22;31563;51.744;8.252;2022-08-25T15:16:02;47.10;26.10
45843;DHT22;31563;51.744;8.252;2022-08-25T15:18:32;47.00;26.20
45843;DHT22;31563;51.744;8.252;2022-08-25T15:21:00;46.80;26.20
45843;DHT22;31563;51.744;8.252;2022-08-25T15:23:28;46.70;26.30
45843;DHT22;31563;51.744;8.252;2022-08-25T15:25:56;46.60;26.30
45843;DHT22;31563;51.744;8.252;2022-08-25T15:28:24;46.50;26.40
45843;DHT22;31563;51.744;8.252;2022-08-25T15:30:52;46.40;26.40
45843;DHT22;31563;51.744;8.252;2022-08-25T15:33:21;46.20;26.30
45843;DHT22;31563;51.744;8.252;2022-08-25T15:35:50;46.10;26.40
45843;DHT22;31563;51.744;8.252;2022-08-25T15:38:20;46.00;26.60
45843;DHT22;31563;51.744;8.252;2022-08-25T15:40:48;45.80;26.60
45843;DHT22;31563;51.744;8.252;2022-08-25T15:43:16;45.70;26.70
45843;DHT22;31563;51.744;8.252;2022-08-25T15:45:44;45.40;26.60
45843;DHT22;31563;51.744;8.252;2022-08-25T15:48:12;45.20;26.50
45843;DHT22;31563;51.744;8.252;2022-08-25T15:50:40;44.80;26.60
45843;DHT22;31563;51.744;8.252;2022-08-25T15:53:10;44.40;26.90
45843;DHT22;31563;51.744;8.252;2022-08-25T15:55:40;44.00;27.40
45843;DHT22;31563;51.744;8.252;2022-08-25T15:58:09;44.00;27.50
45843;DHT22;31563;51.744;8.252;2022-08-25T16:00:38;44.00;27.60
45843;DHT22;31563;51.744;8.252;2022-08-25T16:03:07;43.60;27.60
45843;DHT22;31563;51.744;8.252;2022-08-25T16:05:36;43.20;27.70
45843;DHT22;31563;51.744;8.252;2022-08-25T16:08:07;42.90;27.90
45843;DHT22;31563;51.744;8.252;2022-08-25T16:10:46;42.60;28.10
45843;DHT22;31563;51.744;8.252;2022-08-25T16:13:15;42.30;28.50
45843;DHT22;31563;51.744;8.252;2022-08-25T16:15:46;42.20;28.60
45843;DHT22;31563;51.744;8.252;2022-08-25T16:18:20;42.00;28.60
45843;DHT22;31563;51.744;8.252;2022-08-25T16:20:49;42.00;28.40
45843;DHT22;31563;51.744;8.252;2022-08-25T16:23:18;41.90;28.20